Time;durP1;ratioP1;P1;durP2;ratioP2;P2;SDS_P1;SDS_P2;PMS_P1;PMS_P2;Temp;Humidity;BMP_temperature;BMP_pressure;BME280_temperature;BME280_humidity;BME280_pressure;Samples;Min_cycle;Max_cycle;Signal;HPM_P1;HPM_P2
2021/10/19 00:02:03;;;;;;;6.20;3.42;;;;;;;13.43;85.96;99725.13;5072840;28;20492;-93
2021/10/19 00:04:28;;;;;;;1.83;1.73;;;;;;;13.58;87.06;99773.56;5055425;28;20037;-92
2021/10/19 00:06:54;;;;;;;1.05;1.05;;;;;;;13.35;87.02;99743.13;5055016;28;20036;-92
2021/10/19 00:09:20;;;;;;;1.33;1.33;;;;;;;13.26;86.52;99737.41;5055051;28;20049;-92
2021/10/19 00:11:45;;;;;;;1.10;1.05;;;;;;;13.47;86.61;99778.56;5072814;28;20059;-93
2021/10/19 00:14:11;;;;;;;2.20;2.10;;;;;;;13.23;87.14;99718.81;5055100;28;20035;-94
2021/10/19 00:16:36;;;;;;;2.13;1.58;;;;;;;13.39;86.90;99777.16;5072847;28;20118;-94
2021/10/19 00:19:04;;;;;;;0.95;0.95;;;;;;;13.39;85.91;99774.38;5055726;28;20123;-92
2021/10/19 00:21:30;;;;;;;2.70;2.20;;;;;;;13.38;86.16;99773.59;5072756;28;20125;-94
2021/10/19 00:23:55;;;;;;;2.28;1.67;;;;;;;13.30;83.08;99772.19;5054745;28;20491;-94
2021/10/19 00:26:20;;;;;;;1.45;1.30;;;;;;;13.31;82.18;99784.09;5054902;28;20059;-91
2021/10/19 00:28:46;;;;;;;2.08;1.60;;;;;;;13.20;83.41;99753.75;5055027;28;20036;-90
2021/10/19 00:31:11;;;;;;;1.33;1.23;;;;;;;13.28;81.55;99776.59;5054816;28;20081;-90
2021/10/19 00:33:37;;;;;;;1.13;1.13;;;;;;;13.37;78.31;99796.25;5055515;28;20419;-90
2021/10/19 00:36:02;;;;;;;0.47;0.47;;;;;;;13.18;78.74;99749.84;5058087;28;20032;-90
2021/10/19 00:38:28;;;;;;;1.48;1.48;;;;;;;13.39;79.46;99783.47;5059006;28;20078;-91
2021/10/19 00:40:53;;;;;;;0.20;0.20;;;;;;;13.50;79.45;99802.72;5058543;28;20407;-92
2021/10/19 00:43:19;;;;;;;0.65;0.52;;;;;;;13.45;76.26;99784.53;5058328;28;20032;-91
2021/10/19 00:45:44;;;;;;;2.10;1.60;;;;;;;13.67;76.66;99797.97;5058316;28;20031;-91
2021/10/19 00:48:14;;;;;;;1.33;1.23;;;;;;;13.68;76.53;99799.53;5058429;28;20021;-92
2021/10/19 00:50:40;;;;;;;1.58;1.58;;;;;;;13.79;77.65;99805.63;5057925;28;20035;-91
2021/10/19 00:53:07;;;;;;;1.02;1.02;;;;;;;13.75;78.82;99810.47;5075594;28;20496;-92
2021/10/19 00:55:33;;;;;;;1.17;1.17;;;;;;;13.62;78.04;99796.47;5058254;28;20028;-91
2021/10/19 00:58:00;;;;;;;0.93;0.93;;;;;;;13.24;79.22;99737.03;5076035;28;20021;-92
2021/10/19 01:00:25;;;;;;;4.10;1.43;;;;;;;13.67;79.10;99807.09;5058084;28;20028;-92
2021/10/19 01:02:51;;;;;;;1.02;1.02;;;;;;;13.50;79.62;99794.38;5057994;28;20028;-91
2021/10/19 01:05:16;;;;;;;2.17;0.82;;;;;;;13.61;77.62;99808.81;5057982;28;20472;-95
2021/10/19 01:07:43;;;;;;;4.00;1.58;;;;;;;13.48;73.63;99807.91;5058113;28;20503;-93
2021/10/19 01:10:09;;;;;;;0.80;0.80;;;;;;;13.30;72.76;99791.63;5075133;28;20072;-91
2021/10/19 01:12:35;;;;;;;0.32;0.32;;;;;;;12.82;73.54;99722.03;5057971;28;20037;-92
2021/10/19 01:15:08;;;;;;;1.38;1.38;;;;;;;13.45;76.09;99800.41;5057775;28;20532;-92
2021/10/19 01:17:34;;;;;;;1.77;0.90;;;;;;;13.38;75.94;99795.03;5057821;28;20116;-93
2021/10/19 01:19:59;;;;;;;0.30;0.30;;;;;;;13.38;75.86;99795.03;5057583;28;20104;-93
2021/10/19 01:22:25;;;;;;;1.50;1.40;;;;;;;13.57;77.99;99818.41;5057571;28;20063;-93
2021/10/19 01:24:50;;;;;;;0.98;0.90;;;;;;;13.55;79.52;99813.31;5057159;28;20028;-93
2021/10/19 01:27:15;;;;;;;1.23;1.10;;;;;;;13.22;76.07;99797.72;5057689;28;20041;-93
2021/10/19 01:29:41;;;;;;;4.22;1.95;;;;;;;13.05;77.80;99761.56;5057377;28;20036;-90
2021/10/19 01:32:06;;;;;;;1.25;0.80;;;;;;;13.25;74.26;99819.09;5058077;28;20085;-89
2021/10/19 01:34:34;;;;;;;4.47;0.77;;;;;;;13.35;69.98;99829.97;5057383;28;20028;-88
2021/10/19 01:36:59;;;;;;;4.22;1.60;;;;;;;12.99;73.45;99766.06;5057392;28;20043;-92
2021/10/19 01:39:25;;;;;;;1.83;1.73;;;;;;;13.26;71.78;99834.53;5075217;28;20032;-89
2021/10/19 01:41:50;;;;;;;2.35;2.17;;;;;;;13.08;72.55;99807.09;5057196;28;20031;-88
2021/10/19 01:44:16;;;;;;;1.30;1.25;;;;;;;13.19;74.18;99827.13;5057404;28;20027;-89
2021/10/19 01:46:41;;;;;;;1.55;1.45;;;;;;;13.02;74.46;99826.22;5074873;28;20070;-88
2021/10/19 01:49:06;;;;;;;2.17;2.08;;;;;;;13.13;75.03;99836.38;5075093;28;20098;-88
2021/10/19 01:51:32;;;;;;;1.63;1.52;;;;;;;12.94;75.30;99821.25;5056990;28;20090;-88
2021/10/19 01:53:58;;;;;;;1.70;1.60;;;;;;;12.98;73.91;99839.38;5075093;28;20021;-90
2021/10/19 01:56:24;;;;;;;0.63;0.63;;;;;;;12.98;73.37;99835.81;5057074;28;20120;-88
2021/10/19 01:58:49;;;;;;;1.25;0.95;;;;;;;12.89;73.72;99822.53;5057443;28;20052;-90
2021/10/19 02:01:15;;;;;;;1.95;1.85;;;;;;;12.81;72.00;99821.09;5075005;28;20058;-91
2021/10/19 02:03:40;;;;;;;3.53;0.90;;;;;;;12.55;70.96;99777.59;5057851;28;20021;-92
2021/10/19 02:06:06;;;;;;;1.23;1.13;;;;;;;12.71;70.54;99810.97;5057103;28;20029;-89
2021/10/19 02:08:33;;;;;;;3.38;1.05;;;;;;;12.93;70.65;99856.53;5056666;28;20484;-90
2021/10/19 02:10:59;;;;;;;1.40;1.30;;;;;;;12.80;71.42;99844.47;5057153;28;20034;-92
2021/10/19 02:13:24;;;;;;;0.77;0.77;;;;;;;12.84;71.85;99838.88;5057345;28;20099;-92
2021/10/19 02:15:49;;;;;;;4.47;1.70;;;;;;;12.62;71.96;99835.69;5056932;28;20036;-93
2021/10/19 02:18:15;;;;;;;0.75;0.75;;;;;;;12.71;73.11;99837.94;5074643;28;20033;-93
2021/10/19 02:20:40;;;;;;;2.15;2.05;;;;;;;12.72;73.44;99861.69;5056641;28;20024;-94
2021/10/19 02:23:07;;;;;;;1.50;1.35;;;;;;;12.56;73.42;99842.91;5056990;28;20029;-95
2021/10/19 02:25:33;;;;;;;2.78;2.38;;;;;;;12.61;72.85;99854.31;5056811;28;20028;-93
2021/10/19 02:27:58;;;;;;;1.23;1.23;;;;;;;12.58;73.16;99855.16;5057045;28;20464;-94
2021/10/19 02:30:25;;;;;;;1.40;0.95;;;;;;;12.55;73.62;99853.22;5057036;28;20024;-92
2021/10/19 02:32:51;;;;;;;3.00;1.95;;;;;;;12.54;73.33;99859.97;5056750;28;20063;-93
2021/10/19 02:35:18;;;;;;;3.13;1.60;;;;;;;12.29;73.13;99837.44;5057194;28;20108;-90
2021/10/19 02:37:45;;;;;;;2.40;2.30;;;;;;;12.29;73.82;99839.44;5056366;28;20028;-95
2021/10/19 02:40:12;;;;;;;4.65;2.33;;;;;;;12.43;74.07;99861.34;5073955;28;20107;-94
2021/10/19 02:42:38;;;;;;;0.90;0.85;;;;;;;12.46;73.95;99882.69;5056736;28;20093;-93
2021/10/19 02:45:05;;;;;;;2.45;1.48;;;;;;;12.15;74.27;99841.22;5056379;28;20056;-92
2021/10/19 02:47:30;;;;;;;0.80;0.80;;;;;;;12.35;74.82;99880.09;5057096;28;20032;-92
2021/10/19 02:49:56;;;;;;;1.88;1.77;;;;;;;12.39;74.68;99882.81;5056770;28;20419;-92
2021/10/19 02:52:21;;;;;;;1.33;1.23;;;;;;;12.32;74.30;99874.59;5056462;28;20411;-91
2021/10/19 02:54:49;;;;;;;8.57;2.20;;;;;;;12.32;73.75;99869.84;5056176;28;20476;-91
2021/10/19 02:57:14;;;;;;;1.25;1.23;;;;;;;12.36;74.28;99872.53;5055348;28;20031;-91
2021/10/19 02:59:40;;;;;;;1.70;1.58;;;;;;;11.98;74.36;99836.72;5055911;28;20040;-93
2021/10/19 03:02:05;;;;;;;0.95;0.95;;;;;;;12.18;74.15;99873.59;5055935;28;20028;-91
2021/10/19 03:04:31;;;;;;;1.00;1.00;;;;;;;11.82;75.33;99859.47;5073648;28;20063;-91
2021/10/19 03:06:56;;;;;;;1.33;1.20;;;;;;;11.96;76.41;99877.88;5073422;28;20033;-92
2021/10/19 03:09:21;;;;;;;2.63;2.53;;;;;;;11.82;77.12;99878.06;5073975;28;20056;-92
2021/10/19 03:11:49;;;;;;;1.35;1.35;;;;;;;11.64;78.12;99883.03;5073375;28;20029;-92
2021/10/19 03:14:14;;;;;;;2.25;1.77;;;;;;;11.45;79.60;99853.25;5072626;28;20028;-92
2021/10/19 03:16:40;;;;;;;0.80;0.80;;;;;;;11.49;80.83;99878.88;5055785;28;20056;-92
2021/10/19 03:19:05;;;;;;;0.82;0.82;;;;;;;11.23;80.20;99867.31;5055706;28;20404;-92
2021/10/19 03:21:31;;;;;;;1.05;1.02;;;;;;;10.96;81.72;99831.28;5055472;28;20469;-92
2021/10/19 03:23:57;;;;;;;2.03;1.92;;;;;;;10.98;82.76;99841.91;5055544;28;20032;-92
2021/10/19 03:26:22;;;;;;;1.92;1.83;;;;;;;10.89;81.68;99860.97;5055243;28;20062;-92
2021/10/19 03:28:48;;;;;;;1.33;1.33;;;;;;;10.89;81.62;99877.56;5056487;28;20037;-92
2021/10/19 03:31:13;;;;;;;1.20;1.20;;;;;;;10.76;82.26;99862.66;5072867;28;20033;-91
2021/10/19 03:33:40;;;;;;;0.55;0.55;;;;;;;10.82;82.89;99883.16;5055712;28;20077;-91
2021/10/19 03:36:06;;;;;;;0.80;0.80;;;;;;;10.74;83.17;99885.19;5056021;28;20484;-92
2021/10/19 03:38:39;;;;;;;0.88;0.88;;;;;;;10.78;82.61;99890.69;5055150;28;20029;-90
2021/10/19 03:41:06;;;;;;;1.00;1.00;;;;;;;10.49;84.24;99845.91;5055414;28;20016;-92
2021/10/19 03:43:32;;;;;;;2.10;2.00;;;;;;;10.46;86.72;99844.00;5072246;28;20109;-92
2021/10/19 03:45:57;;;;;;;0.75;0.75;;;;;;;10.35;85.62;99866.19;5055264;28;20037;-91
2021/10/19 03:48:23;;;;;;;1.98;1.88;;;;;;;10.08;85.78;99854.09;5055613;28;20032;-92
2021/10/19 03:50:48;;;;;;;1.38;1.38;;;;;;;10.32;86.09;99878.03;5055015;28;20028;-92
2021/10/19 03:53:14;;;;;;;1.55;1.45;;;;;;;10.25;85.94;99871.78;5055506;28;20028;-92
2021/10/19 03:55:40;;;;;;;1.40;1.15;;;;;;;10.39;86.08;99900.09;5055210;28;20029;-92
2021/10/19 03:58:05;;;;;;;1.92;1.70;;;;;;;10.18;85.16;99858.81;5055310;28;20116;-92
2021/10/19 04:00:31;;;;;;;0.52;0.52;;;;;;;10.28;86.09;99891.09;5055385;28;20024;-92
2021/10/19 04:02:56;;;;;;;0.40;0.40;;;;;;;10.18;86.74;99886.44;5055433;28;20032;-91
2021/10/19 04:05:22;;;;;;;1.23;1.23;;;;;;;9.78;85.97;99836.16;5055210;28;20404;-91
2021/10/19 04:07:47;;;;;;;1.98;1.88;;;;;;;10.28;86.01;99904.91;5055002;28;20033;-89
2021/10/19 04:10:15;;;;;;;1.00;1.00;;;;;;;10.05;86.62;99855.72;5076671;28;20076;-92
2021/10/19 04:12:40;;;;;;;1.42;1.33;;;;;;;10.05;85.44;99868.72;5058985;28;20020;-92
2021/10/19 04:15:06;;;;;;;1.67;1.58;;;;;;;10.26;85.29;99909.25;5076516;28;20048;-92
2021/10/19 04:17:32;;;;;;;1.45;1.35;;;;;;;10.20;85.58;99892.31;5058259;28;20053;-93
2021/10/19 04:19:58;;;;;;;1.15;1.15;;;;;;;10.32;85.63;99915.91;5076184;28;20028;-93
2021/10/19 04:22:23;;;;;;;0.77;0.77;;;;;;;9.99;85.77;99875.88;5076165;28;20469;-93
2021/10/19 04:24:51;;;;;;;5.78;1.17;;;;;;;10.03;86.01;99896.75;5058659;28;20024;-94
2021/10/19 04:27:17;;;;;;;0.77;0.77;;;;;;;10.24;84.89;99940.06;5058948;28;20574;-92
2021/10/19 04:29:43;;;;;;;0.80;0.80;;;;;;;10.10;86.27;99907.75;5058737;28;20111;-94
2021/10/19 04:32:09;;;;;;;1.50;1.50;;;;;;;10.23;84.56;99941.25;5076770;28;20024;-93
2021/10/19 04:34:34;;;;;;;1.70;1.33;;;;;;;10.19;84.60;99929.41;5058647;28;20039;-89
2021/10/19 04:36:59;;;;;;;1.75;1.15;;;;;;;10.36;84.01;99938.78;5058880;28;20028;-94
2021/10/19 04:39:25;;;;;;;1.30;1.30;;;;;;;10.19;84.21;99915.59;5058336;28;20575;-91
2021/10/19 04:41:52;;;;;;;2.63;2.50;;;;;;;10.28;84.36;99932.53;5076454;28;20028;-92
2021/10/19 04:44:18;;;;;;;2.00;1.83;;;;;;;9.61;84.69;99839.00;5058470;28;20020;-94
2021/10/19 04:46:43;;;;;;;1.88;1.77;;;;;;;10.08;85.49;99921.16;5058396;28;20058;-91
2021/10/19 04:49:09;;;;;;;1.85;1.75;;;;;;;9.78;84.76;99866.50;5058223;28;20048;-94
2021/10/19 04:51:35;;;;;;;2.28;1.58;;;;;;;9.82;84.20;99882.28;5058045;28;20037;-95
2021/10/19 04:54:00;;;;;;;0.57;0.57;;;;;;;10.17;83.75;99949.16;5058629;28;20024;-95
2021/10/19 04:56:26;;;;;;;1.10;1.10;;;;;;;10.00;83.13;99916.88;5057813;28;20129;-95
2021/10/19 04:58:52;;;;;;;1.20;1.20;;;;;;;9.86;83.64;99886.59;5058560;28;20037;-94
2021/10/19 05:01:17;;;;;;;0.60;0.60;;;;;;;10.23;83.56;99927.44;5058259;28;20020;-92
2021/10/19 05:03:46;;;;;;;0.65;0.65;;;;;;;10.17;83.61;99918.00;5058164;28;20028;-93
2021/10/19 05:06:15;;;;;;;2.03;1.92;;;;;;;10.39;83.85;99958.09;5057969;28;20016;-92
2021/10/19 05:08:40;;;;;;;1.20;1.10;;;;;;;10.37;84.32;99951.41;5075626;28;20119;-93
2021/10/19 05:11:06;;;;;;;0.25;0.25;;;;;;;10.06;84.62;99892.41;5075693;28;20064;-93
2021/10/19 05:13:32;;;;;;;2.08;1.75;;;;;;;10.42;83.85;99953.75;5057998;28;20534;-94
2021/10/19 05:15:57;;;;;;;1.83;1.67;;;;;;;10.45;84.08;99964.78;5057881;28;20020;-93
2021/10/19 05:18:23;;;;;;;1.30;1.15;;;;;;;10.00;83.20;99877.44;5057906;28;20036;-94
2021/10/19 05:20:48;;;;;;;0.85;0.85;;;;;;;10.25;83.69;99908.47;5057052;28;20020;-92
2021/10/19 05:23:14;;;;;;;0.85;0.85;;;;;;;10.68;82.75;99978.03;5075467;28;20028;-93
2021/10/19 05:25:39;;;;;;;4.78;2.65;;;;;;;10.60;83.31;99963.50;5057819;28;20115;-92
2021/10/19 05:28:05;;;;;;;2.72;1.95;;;;;;;10.63;83.00;99970.19;5057493;28;20465;-93
2021/10/19 05:30:31;;;;;;;1.85;1.05;;;;;;;10.71;81.87;99968.16;5057593;28;20021;-93
2021/10/19 05:32:56;;;;;;;1.60;1.50;;;;;;;10.79;81.12;99975.22;5075242;28;20028;-90
2021/10/19 05:35:21;;;;;;;0.93;0.77;;;;;;;10.83;81.10;99985.03;5073976;28;20039;-90
2021/10/19 05:37:47;;;;;;;2.08;0.98;;;;;;;10.39;80.16;99926.91;5058258;28;20122;-92
2021/10/19 05:40:12;;;;;;;2.00;1.90;;;;;;;10.80;80.01;99996.09;5057561;28;20032;-91
2021/10/19 05:42:38;;;;;;;3.05;1.33;;;;;;;10.48;80.76;99958.44;5057470;28;20514;-91
2021/10/19 05:45:06;;;;;;;1.70;1.60;;;;;;;10.70;81.69;99988.69;5073886;28;20046;-89
2021/10/19 05:47:32;;;;;;;1.38;1.38;;;;;;;10.44;81.57;99982.53;5074942;28;20055;-91
2021/10/19 05:49:58;;;;;;;0.30;0.30;;;;;;;10.51;82.05;100006.56;5057316;28;20017;-93
2021/10/19 05:52:23;;;;;;;1.85;1.73;;;;;;;10.42;81.62;99993.22;5056769;28;20540;-91
2021/10/19 05:54:49;;;;;;;1.92;1.75;;;;;;;10.61;81.20;100028.63;5056726;28;20112;-92
2021/10/19 05:57:14;;;;;;;0.55;0.55;;;;;;;10.57;82.87;100024.31;5056801;28;20024;-90
2021/10/19 05:59:40;;;;;;;0.40;0.40;;;;;;;10.48;82.53;100016.47;5074512;28;20030;-93
2021/10/19 06:02:05;;;;;;;0.73;0.73;;;;;;;10.47;83.30;99978.97;5056941;28;20538;-92
2021/10/19 06:04:31;;;;;;;1.23;1.23;;;;;;;10.88;81.61;100036.34;5056785;28;20025;-92
2021/10/19 06:06:58;;;;;;;1.17;1.08;;;;;;;10.95;80.86;100037.09;5056560;28;20047;-90
2021/10/19 06:09:25;;;;;;;1.02;1.02;;;;;;;11.33;80.00;100026.13;5056595;28;20113;-91
2021/10/19 06:11:52;;;;;;;1.27;1.17;;;;;;;11.75;77.74;100028.47;5056370;28;20544;-91
2021/10/19 06:14:18;;;;;;;1.45;1.35;;;;;;;12.29;75.90;100027.88;5056514;28;20043;-90
2021/10/19 06:16:44;;;;;;;1.45;1.35;;;;;;;12.49;74.32;100007.38;5056296;28;20025;-87
2021/10/19 06:19:09;;;;;;;1.58;1.45;;;;;;;12.98;72.35;100061.31;5073937;28;20104;-92
2021/10/19 06:21:35;;;;;;;6.85;2.17;;;;;;;13.11;71.85;100022.69;5075155;28;20404;-87
2021/10/19 06:24:00;;;;;;;0.82;0.82;;;;;;;13.36;70.46;100033.41;5073792;28;20468;-88
2021/10/19 06:26:25;;;;;;;0.75;0.75;;;;;;;13.94;68.66;100067.25;5073823;28;20029;-88
2021/10/19 06:28:51;;;;;;;1.70;1.63;;;;;;;14.09;68.26;100065.78;5056244;28;20503;-90
2021/10/19 06:31:16;;;;;;;0.75;0.75;;;;;;;13.66;69.06;100066.59;5055506;28;20081;-90
2021/10/19 06:33:42;;;;;;;4.35;2.65;;;;;;;13.18;71.17;100082.88;5056009;28;20121;-88
2021/10/19 06:36:07;;;;;;;2.83;1.17;;;;;;;11.80;73.87;99988.50;5073724;28;20395;-90
2021/10/19 06:38:33;;;;;;;4.35;1.75;;;;;;;11.76;75.23;100059.72;5056054;28;20024;-90
2021/10/19 06:40:59;;;;;;;2.00;1.90;;;;;;;11.08;76.06;99986.81;5055771;28;20032;-90
2021/10/19 06:43:24;;;;;;;0.70;0.70;;;;;;;11.57;77.12;100083.22;5073560;28;20095;-89
2021/10/19 06:45:50;;;;;;;0.63;0.63;;;;;;;11.49;77.56;100072.63;5055902;28;20024;-88
2021/10/19 06:48:15;;;;;;;3.40;0.70;;;;;;;11.48;78.46;100063.53;5056524;28;20025;-92
2021/10/19 06:50:41;;;;;;;1.65;1.55;;;;;;;11.52;78.22;100078.09;5055804;28;20059;-89
2021/10/19 06:53:06;;;;;;;2.53;1.65;;;;;;;11.52;78.35;100074.53;5056221;28;20388;-84
2021/10/19 06:55:32;;;;;;;2.05;0.90;;;;;;;11.44;78.93;100032.34;5055385;28;20182;-90
2021/10/19 06:57:58;;;;;;;3.45;1.27;;;;;;;11.93;78.72;100056.00;5055515;28;20404;-90
2021/10/19 07:00:24;;;;;;;1.17;0.82;;;;;;;12.45;76.96;100080.69;5056283;28;20024;-88
2021/10/19 07:02:49;;;;;;;1.02;1.02;;;;;;;12.72;75.52;100080.75;5055570;28;20064;-88
2021/10/19 07:05:15;;;;;;;0.43;0.43;;;;;;;12.09;74.72;99958.44;5056385;28;20040;-88
2021/10/19 07:07:42;;;;;;;0.40;0.40;;;;;;;12.79;73.79;100009.31;5055286;28;20031;-86
2021/10/19 07:10:09;;;;;;;1.30;1.10;;;;;;;13.16;74.32;100057.53;5054836;28;20056;-85
2021/10/19 07:12:36;;;;;;;0.77;0.77;;;;;;;13.22;72.32;100055.84;5055479;28;20020;-86
2021/10/19 07:15:03;;;;;;;1.75;1.33;;;;;;;13.27;71.86;100049.78;5073056;28;20028;-85
2021/10/19 07:17:29;;;;;;;1.08;1.02;;;;;;;13.43;71.37;100053.50;5054871;28;20128;-87
2021/10/19 07:19:55;;;;;;;1.73;1.63;;;;;;;13.49;70.07;100053.81;5054909;28;20068;-83
2021/10/19 07:22:28;;;;;;;1.63;1.52;;;;;;;13.73;70.97;100068.47;5055270;28;20021;-87
2021/10/19 07:24:55;;;;;;;1.65;1.58;;;;;;;13.84;69.27;100067.03;5055484;28;20063;-85
2021/10/19 07:27:20;;;;;;;0.70;0.68;;;;;;;13.74;70.16;100036.69;5055509;28;20035;-85
2021/10/19 07:29:46;;;;;;;1.20;1.13;;;;;;;13.92;70.12;100047.47;5072552;28;20032;-85
2021/10/19 07:32:11;;;;;;;2.53;1.60;;;;;;;14.21;68.19;100067.94;5055217;28;20468;-86
2021/10/19 07:34:37;;;;;;;0.50;0.50;;;;;;;14.31;68.09;100066.91;5054772;28;20044;-86
2021/10/19 07:37:02;;;;;;;1.58;1.48;;;;;;;14.40;68.58;100056.06;5072573;28;20024;-87
2021/10/19 07:39:28;;;;;;;0.82;0.65;;;;;;;14.31;67.68;100041.13;5054772;28;20032;-87
2021/10/19 07:41:53;;;;;;;2.83;1.67;;;;;;;14.54;68.48;100077.19;5055027;28;20073;-86
2021/10/19 07:44:20;;;;;;;2.53;1.02;;;;;;;14.62;67.55;100079.41;5059184;28;20032;-87
2021/10/19 07:46:45;;;;;;;1.67;1.58;;;;;;;14.48;68.00;100076.91;5077051;28;20464;-87
2021/10/19 07:49:11;;;;;;;0.93;0.93;;;;;;;14.46;68.25;100067.44;5059230;28;20034;-88
2021/10/19 07:51:36;;;;;;;0.90;0.70;;;;;;;14.68;66.04;100068.56;5058925;28;20029;-87
2021/10/19 07:54:02;;;;;;;1.98;1.10;;;;;;;14.74;63.71;100043.78;5077115;28;20062;-91
2021/10/19 07:56:27;;;;;;;1.02;1.02;;;;;;;14.60;62.65;100005.94;5058800;28;20052;-87
2021/10/19 07:58:53;;;;;;;2.00;1.55;;;;;;;14.79;62.47;100024.56;5076634;28;20035;-91
2021/10/19 08:01:18;;;;;;;3.58;1.77;;;;;;;14.88;61.31;100007.28;5058754;28;20063;-87
2021/10/19 08:03:44;;;;;;;1.38;1.35;;;;;;;14.97;61.68;100016.59;5076905;28;20032;-87
2021/10/19 08:06:09;;;;;;;7.82;2.22;;;;;;;14.97;60.42;100018.59;5076552;28;20472;-86
2021/10/19 08:08:37;;;;;;;0.22;0.22;;;;;;;15.44;61.50;100064.34;5058232;28;20469;-87
2021/10/19 08:11:04;;;;;;;1.38;1.27;;;;;;;15.55;59.10;100050.19;5059530;28;20024;-87
2021/10/19 08:13:30;;;;;;;0.47;0.47;;;;;;;15.56;59.50;100050.97;5076464;28;20043;-86
2021/10/19 08:15:55;;;;;;;0.10;0.10;;;;;;;15.81;59.98;100068.59;5058492;28;20028;-87
2021/10/19 08:18:21;;;;;;;0.30;0.30;;;;;;;15.40;56.35;100007.19;5076170;28;20032;-88
2021/10/19 08:20:46;;;;;;;1.05;1.05;;;;;;;15.76;59.03;100062.78;5058609;28;20028;-89
2021/10/19 08:23:12;;;;;;;0.43;0.43;;;;;;;15.62;58.12;100024.13;5058449;28;20035;-87
2021/10/19 08:25:38;;;;;;;0.43;0.43;;;;;;;15.92;57.81;100061.94;5058973;28;20024;-88
2021/10/19 08:28:04;;;;;;;1.15;1.05;;;;;;;15.94;59.42;100065.09;5076027;28;20021;-85
2021/10/19 08:30:30;;;;;;;0.73;0.73;;;;;;;15.74;57.68;100028.97;5057996;28;20536;-87
2021/10/19 08:32:56;;;;;;;1.65;1.25;;;;;;;15.70;58.87;100015.16;5058128;28;20119;-87
2021/10/19 08:35:22;;;;;;;0.45;0.45;;;;;;;15.97;56.89;100056.66;5058069;28;20123;-87
2021/10/19 08:37:49;;;;;;;0.63;0.63;;;;;;;15.96;59.01;100045.94;5058176;28;20025;-88
2021/10/19 08:40:15;;;;;;;0.17;0.17;;;;;;;16.01;58.03;100048.16;5058267;28;20028;-88
2021/10/19 08:42:44;;;;;;;3.30;1.15;;;;;;;15.96;58.25;100007.69;5075983;28;20104;-86
2021/10/19 08:45:11;;;;;;;0.73;0.73;;;;;;;16.08;58.26;100031.25;5058117;28;20025;-86
2021/10/19 08:47:36;;;;;;;0.90;0.82;;;;;;;16.13;57.33;100028.69;5057876;28;20033;-86
2021/10/19 08:50:03;;;;;;;0.60;0.60;;;;;;;16.25;57.09;100052.25;5075785;28;20039;-85
2021/10/19 08:52:29;;;;;;;0.63;0.43;;;;;;;16.23;55.41;100058.28;5058073;28;20059;-87
2021/10/19 08:54:54;;;;;;;3.00;0.47;;;;;;;16.26;54.24;100049.03;5074817;28;20111;-88
2021/10/19 08:57:20;;;;;;;0.25;0.25;;;;;;;16.38;57.98;100041.13;5057808;28;20494;-86
2021/10/19 08:59:48;;;;;;;0.65;0.63;;;;;;;16.48;56.79;100043.59;5057749;28;20034;-87
2021/10/19 09:02:14;;;;;;;0.80;0.80;;;;;;;16.44;57.01;100031.00;5075617;28;20497;-87
2021/10/19 09:04:42;;;;;;;0.30;0.30;;;;;;;16.33;56.14;99997.06;5057789;28;20037;-87
2021/10/19 09:07:07;;;;;;;0.20;0.20;;;;;;;16.50;54.75;100020.84;5057949;28;20123;-87
2021/10/19 09:09:35;;;;;;;0.75;0.75;;;;;;;16.87;57.18;100036.88;5057701;28;20126;-87
2021/10/19 09:12:02;;;;;;;0.30;0.30;;;;;;;16.85;55.37;100036.53;5057636;28;20472;-87
2021/10/19 09:14:35;;;;;;;0.50;0.50;;;;;;;16.88;51.90;100002.13;5057301;28;20068;-87
2021/10/19 09:17:04;;;;;;;0.80;0.80;;;;;;;17.20;51.49;100026.22;5057884;28;20035;-88
2021/10/19 09:19:34;;;;;;;0.47;0.47;;;;;;;17.23;50.71;99996.63;5057400;28;20031;-88
2021/10/19 09:22:06;;;;;;;0.10;0.10;;;;;;;17.26;50.47;100004.09;5057389;28;20025;-88
2021/10/19 09:24:34;;;;;;;0.10;0.10;;;;;;;17.31;50.35;99995.13;5057426;28;20456;-89
2021/10/19 09:27:03;;;;;;;0.65;0.52;;;;;;;17.39;52.45;100021.59;5074917;28;20027;-89
2021/10/19 09:29:33;;;;;;;0.20;0.20;;;;;;;17.13;53.41;99998.53;5074950;28;20028;-86
2021/10/19 09:32:00;;;;;;;1.35;1.25;;;;;;;17.23;53.84;100018.97;5074896;28;20032;-86
2021/10/19 09:34:31;;;;;;;2.00;0.75;;;;;;;17.15;55.69;99998.06;5056958;28;20063;-88
2021/10/19 09:36:57;;;;;;;0.55;0.55;;;;;;;16.95;54.21;99990.72;5057001;28;20055;-88
2021/10/19 09:39:36;;;;;;;0.30;0.30;;;;;;;16.88;53.65;99988.16;5056898;28;20491;-86
2021/10/19 09:42:07;;;;;;;0.43;0.43;;;;;;;16.88;51.71;99971.41;5057249;28;20043;-89
2021/10/19 09:44:33;;;;;;;0.30;0.30;;;;;;;17.09;49.12;99998.66;5057065;28;20035;-87
2021/10/19 09:47:00;;;;;;;0.28;0.28;;;;;;;17.12;48.96;99985.78;5074582;28;20025;-88
2021/10/19 09:49:26;;;;;;;0.38;0.38;;;;;;;17.07;50.20;99984.34;5056788;28;20036;-86
2021/10/19 09:51:52;;;;;;;3.50;0.30;;;;;;;17.08;50.86;99997.09;5056021;28;20428;-91
2021/10/19 09:54:24;;;;;;;0.22;0.22;;;;;;;17.08;51.95;99976.75;5073413;28;20035;-87
2021/10/19 09:56:50;;;;;;;0.93;0.93;;;;;;;17.00;52.53;99979.00;5073741;28;20039;-84
2021/10/19 09:59:17;;;;;;;0.32;0.32;;;;;;;16.95;53.69;99964.81;5056814;28;20020;-84
2021/10/19 10:01:44;;;;;;;2.47;1.17;;;;;;;16.97;54.14;99968.72;5073668;28;20154;-84
2021/10/19 10:04:10;;;;;;;0.40;0.40;;;;;;;16.91;54.14;99964.94;5056366;28;20024;-86
2021/10/19 10:06:36;;;;;;;0.90;0.90;;;;;;;16.91;55.86;99953.78;5074048;28;20067;-86
2021/10/19 10:09:02;;;;;;;0.75;0.75;;;;;;;16.87;55.12;99930.00;5055762;28;20056;-87
2021/10/19 10:11:28;;;;;;;1.27;1.08;;;;;;;16.79;50.74;99914.72;5055726;28;20035;-84
2021/10/19 10:14:05;;;;;;;0.60;0.60;;;;;;;16.96;52.72;99942.03;5055569;28;20024;-83
2021/10/19 10:16:46;;;;;;;0.57;0.43;;;;;;;16.98;53.63;99942.38;5055691;28;20067;-83
2021/10/19 10:19:13;;;;;;;0.60;0.60;;;;;;;16.96;54.19;99925.28;5055645;28;20025;-83
2021/10/19 10:21:53;;;;;;;0.52;0.52;;;;;;;17.11;50.92;99928.38;5073190;28;20032;-83
2021/10/19 10:24:30;;;;;;;4.47;1.83;;;;;;;17.08;49.06;99918.91;5055722;28;20032;-84
2021/10/19 10:27:17;;;;;;;6.78;1.38;;;;;;;17.14;52.34;99921.09;5055558;28;20090;-84
2021/10/19 10:29:48;;;;;;;1.07;0.97;;;;;;;17.14;50.95;99921.09;5055472;28;20021;-83
2021/10/19 10:32:26;;;;;;;0.55;0.55;;;;;;;17.11;52.61;99908.06;5056081;28;20110;-84
2021/10/19 10:35:07;;;;;;;0.22;0.22;;;;;;;17.10;53.58;99910.06;5052681;28;20048;-86
2021/10/19 10:37:50;;;;;;;0.38;0.38;;;;;;;17.12;53.09;99907.59;5053609;28;20028;-83
2021/10/19 10:40:31;;;;;;;0.40;0.40;;;;;;;16.99;50.59;99896.47;5035780;28;20549;-83
2021/10/19 10:42:59;;;;;;;0.98;0.63;;;;;;;17.11;50.41;99906.06;5035292;28;20174;-84
2021/10/19 10:45:33;;;;;;;3.63;2.17;;;;;;;17.23;51.08;99902.44;5053295;28;20055;-89
2021/10/19 10:48:02;;;;;;;1.65;0.77;;;;;;;17.11;52.15;99894.09;5035501;28;20037;-87
2021/10/19 10:50:29;;;;;;;0.30;0.30;;;;;;;17.15;51.13;99911.50;5035749;28;20075;-86
2021/10/19 10:53:11;;;;;;;0.73;0.73;;;;;;;16.85;46.96;99860.66;5052277;28;20025;-87
2021/10/19 10:55:40;;;;;;;1.90;0.95;;;;;;;17.06;47.68;99887.06;5067140;28;20064;-87
2021/10/19 10:58:06;;;;;;;1.05;1.05;;;;;;;17.30;48.88;99901.41;5073474;28;20107;-86
2021/10/19 11:00:32;;;;;;;0.65;0.40;;;;;;;17.44;48.73;99879.31;5055235;28;20135;-86
2021/10/19 11:03:15;;;;;;;1.38;1.17;;;;;;;17.43;53.06;99885.34;5054984;28;20028;-87
2021/10/19 11:05:52;;;;;;;0.43;0.43;;;;;;;17.22;47.43;99856.19;5073088;28;20028;-85
2021/10/19 11:08:35;;;;;;;0.20;0.20;;;;;;;17.41;51.95;99873.88;5054892;28;20029;-86
2021/10/19 11:11:27;;;;;;;0.22;0.22;;;;;;;17.43;51.33;99876.97;5072630;28;20095;-85
2021/10/19 11:13:57;;;;;;;0.77;0.77;;;;;;;17.28;49.89;99839.63;5069582;28;20119;-84
2021/10/19 11:16:32;;;;;;;0.10;0.10;;;;;;;17.61;48.72;99870.75;5071371;28;20034;-84
2021/10/19 11:18:59;;;;;;;0.40;0.40;;;;;;;17.48;49.45;99851.25;5072606;28;20024;-84
2021/10/19 11:21:25;;;;;;;0.73;0.45;;;;;;;17.27;49.56;99827.66;5054674;28;20033;-84
2021/10/19 11:23:50;;;;;;;0.43;0.43;;;;;;;17.29;50.33;99832.81;5054668;28;20038;-83
2021/10/19 11:26:16;;;;;;;0.38;0.38;;;;;;;17.49;50.05;99858.38;5054629;28;20028;-85
2021/10/19 11:28:44;;;;;;;1.58;0.73;;;;;;;17.37;50.88;99845.25;5054545;28;20024;-83
2021/10/19 11:31:11;;;;;;;0.80;0.80;;;;;;;17.08;47.94;99801.59;5054458;28;20373;-84